createdAt,value
2019-03-25T00:00:32.508Z,37.60
2019-03-25T00:03:29.029Z,37.80
2019-03-25T00:06:25.231Z,37.90
2019-03-25T00:09:22.064Z,38.10
2019-03-25T00:12:18.757Z,38.10
2019-03-25T00:15:14.992Z,38.20
2019-03-25T00:18:11.320Z,38.30
2019-03-25T00:21:07.892Z,38.40
2019-03-25T00:24:04.819Z,38.50
2019-03-25T00:27:02.691Z,38.60
2019-03-25T00:29:58.868Z,38.50
2019-03-25T00:32:55.442Z,38.60
2019-03-25T00:35:52.063Z,38.80
2019-03-25T00:38:48.310Z,38.90
2019-03-25T00:41:44.378Z,39.00
2019-03-25T00:44:40.628Z,39.00
2019-03-25T00:47:37.179Z,39.10
2019-03-25T00:50:33.668Z,39.20
2019-03-25T00:53:30.333Z,39.30
2019-03-25T00:56:26.807Z,39.40
2019-03-25T00:59:23.019Z,39.60
2019-03-25T01:02:19.236Z,39.50
2019-03-25T01:05:15.827Z,39.60
2019-03-25T01:08:12.415Z,39.80
2019-03-25T01:11:08.872Z,40.00
2019-03-25T01:14:04.963Z,40.00
2019-03-25T01:17:01.474Z,40.30
2019-03-25T01:19:58.248Z,40.50
2019-03-25T01:22:54.338Z,40.70
2019-03-25T01:25:50.970Z,40.70
2019-03-25T01:28:47.922Z,40.80
2019-03-25T01:31:44.129Z,40.80
2019-03-25T01:34:40.342Z,40.90
2019-03-25T01:37:37.147Z,40.90
2019-03-25T01:40:33.932Z,41.00
2019-03-25T01:43:30.258Z,40.80
2019-03-25T01:46:27.167Z,40.70
2019-03-25T01:49:23.563Z,40.70
2019-03-25T01:52:20.164Z,40.70
2019-03-25T01:55:17.288Z,40.50
2019-03-25T01:58:14.515Z,40.60
2019-03-25T02:01:11.363Z,40.60
2019-03-25T02:04:07.625Z,40.30
2019-03-25T02:07:04.477Z,40.20
2019-03-25T02:10:01.001Z,40.00
2019-03-25T02:12:58.853Z,39.70
2019-03-25T02:15:56.357Z,39.50
2019-03-25T02:18:53.515Z,39.60
2019-03-25T02:21:50.483Z,39.50
2019-03-25T02:24:47.040Z,39.10
2019-03-25T02:27:43.653Z,38.90
2019-03-25T02:30:39.901Z,38.80
2019-03-25T02:33:37.007Z,38.70
2019-03-25T02:36:34.245Z,38.70
2019-03-25T02:39:30.562Z,38.70
2019-03-25T02:42:27.471Z,38.80
2019-03-25T02:45:24.103Z,38.30
2019-03-25T02:48:20.892Z,38.20
2019-03-25T02:51:17.750Z,37.30
2019-03-25T02:54:14.036Z,37.20
2019-03-25T02:57:10.732Z,37.40
2019-03-25T03:00:07.756Z,37.30
2019-03-25T03:03:03.974Z,37.00
2019-03-25T03:06:00.295Z,36.80
2019-03-25T03:08:56.405Z,36.40
2019-03-25T03:11:52.912Z,36.00
2019-03-25T03:14:49.059Z,35.50
2019-03-25T03:17:46.828Z,35.40
2019-03-25T03:20:43.129Z,35.30
2019-03-25T03:23:39.656Z,35.20
2019-03-25T03:26:36.158Z,35.10
2019-03-25T03:29:33.757Z,34.90
2019-03-25T03:32:32.028Z,34.80
2019-03-25T03:35:28.204Z,34.90
2019-03-25T03:38:24.992Z,35.00
2019-03-25T03:41:21.421Z,35.00
2019-03-25T03:44:18.488Z,35.00
2019-03-25T03:47:16.662Z,35.10
2019-03-25T03:50:15.016Z,35.00
2019-03-25T03:53:12.229Z,35.00
2019-03-25T03:56:13.249Z,35.10
2019-03-25T03:59:07.162Z,35.10
2019-03-25T04:02:04.299Z,35.10
2019-03-25T04:05:01.392Z,35.00
2019-03-25T04:07:57.927Z,34.90
2019-03-25T04:10:55.465Z,34.50
2019-03-25T04:13:52.159Z,34.80
2019-03-25T04:16:48.613Z,34.70
2019-03-25T04:19:45.321Z,34.50
2019-03-25T04:22:42.569Z,34.40
2019-03-25T04:25:39.744Z,34.50
2019-03-25T04:28:36.217Z,34.40
2019-03-25T04:31:36.810Z,34.00
2019-03-25T04:34:41.768Z,33.50
2019-03-25T04:37:50.820Z,33.20
2019-03-25T04:40:53.207Z,33.00
2019-03-25T04:43:50.564Z,33.10
2019-03-25T04:46:50.987Z,33.10
2019-03-25T04:49:48.874Z,32.80
2019-03-25T04:52:45.351Z,32.70
2019-03-25T04:55:42.402Z,32.60
2019-03-25T04:58:39.134Z,32.50
2019-03-25T05:01:35.651Z,32.50
2019-03-25T05:04:31.613Z,32.30
2019-03-25T05:07:28.115Z,32.00
2019-03-25T05:10:24.597Z,32.10
2019-03-25T05:13:29.913Z,31.90
2019-03-25T05:16:45.468Z,31.80
2019-03-25T05:19:47.595Z,31.70
2019-03-25T05:22:44.078Z,31.50
2019-03-25T05:25:43.961Z,31.40
2019-03-25T05:28:42.698Z,31.10
2019-03-25T05:31:41.993Z,30.80
2019-03-25T05:34:42.241Z,30.40
2019-03-25T05:37:41.889Z,30.00
2019-03-25T05:40:39.024Z,30.00
2019-03-25T05:43:39.261Z,30.00
2019-03-25T05:46:40.671Z,29.90
2019-03-25T05:49:38.674Z,29.90
2019-03-25T05:52:36.842Z,29.90
2019-03-25T05:55:35.333Z,29.60
2019-03-25T05:58:32.683Z,29.40
2019-03-25T06:01:31.247Z,29.00
2019-03-25T06:04:48.065Z,28.60
2019-03-25T06:07:50.124Z,28.60
2019-03-25T06:10:51.772Z,28.30
2019-03-25T06:13:49.709Z,28.00
2019-03-25T06:16:47.944Z,28.10
2019-03-25T06:19:49.646Z,27.80
2019-03-25T06:22:48.532Z,27.30
2019-03-25T06:25:46.246Z,27.30
2019-03-25T06:28:45.170Z,27.40
2019-03-25T06:31:43.159Z,27.90
2019-03-25T06:34:45.182Z,28.10
2019-03-25T06:39:06.598Z,27.30
2019-03-25T06:42:05.020Z,27.80
2019-03-25T06:45:02.993Z,27.60
2019-03-25T06:48:01.097Z,27.40
2019-03-25T06:51:03.294Z,27.50
2019-03-25T06:54:05.471Z,27.50
2019-03-25T06:57:05.150Z,27.40
2019-03-25T07:00:08.817Z,26.90
2019-03-25T07:03:07.254Z,26.20
2019-03-25T07:06:04.320Z,26.30
2019-03-25T07:09:03.816Z,26.70
2019-03-25T07:12:15.815Z,26.60
2019-03-25T07:15:19.405Z,26.50
2019-03-25T07:18:19.268Z,26.90
2019-03-25T07:21:22.229Z,26.80
2019-03-25T07:24:19.509Z,26.50
2019-03-25T07:27:16.836Z,25.90
2019-03-25T07:30:17.802Z,25.60
2019-03-25T07:33:20.465Z,25.30
2019-03-25T07:36:19.125Z,24.70
2019-03-25T07:39:17.115Z,24.00
2019-03-25T07:42:15.762Z,23.80
2019-03-25T07:45:14.591Z,23.40
2019-03-25T07:48:13.329Z,22.90
2019-03-25T07:51:17.762Z,23.00
2019-03-25T07:54:12.506Z,22.40
2019-03-25T07:57:11.723Z,22.60
2019-03-25T08:00:14.191Z,22.90
2019-03-25T08:03:15.686Z,22.70
2019-03-25T08:06:14.327Z,22.80
2019-03-25T08:09:23.251Z,23.00
2019-03-25T08:12:28.676Z,22.80
2019-03-25T08:15:27.093Z,23.10
2019-03-25T08:18:25.847Z,23.60
2019-03-25T08:21:28.909Z,23.80
2019-03-25T08:24:25.571Z,23.50
2019-03-25T08:27:27.252Z,23.90
2019-03-25T08:30:24.517Z,24.00
2019-03-25T08:33:23.136Z,24.10
2019-03-25T08:36:20.451Z,24.10
2019-03-25T08:39:16.997Z,24.20
2019-03-25T08:42:12.983Z,24.30
2019-03-25T08:45:09.721Z,23.00
2019-03-25T08:48:05.938Z,22.70
2019-03-25T08:51:02.899Z,22.70
2019-03-25T08:54:08.618Z,22.70
2019-03-25T08:57:10.263Z,22.80
2019-03-25T09:00:07.014Z,23.00
2019-03-25T09:03:03.388Z,23.10
2019-03-25T09:06:01.427Z,22.60
2019-03-25T09:08:59.181Z,22.40
2019-03-25T09:11:54.492Z,21.50
2019-03-25T09:14:51.077Z,21.00
2019-03-25T09:17:47.623Z,20.60
2019-03-25T09:20:43.816Z,20.70
2019-03-25T09:23:41.149Z,20.50
2019-03-25T09:26:38.626Z,20.90
2019-03-25T09:29:36.617Z,20.60
2019-03-25T09:32:37.620Z,20.40
2019-03-25T09:35:34.749Z,20.10
2019-03-25T09:38:31.535Z,20.30
2019-03-25T09:41:28.292Z,20.30
2019-03-25T09:44:24.922Z,20.10
2019-03-25T09:47:24.215Z,20.10
2019-03-25T09:50:20.698Z,20.30
2019-03-25T09:53:18.646Z,20.80
2019-03-25T09:56:15.635Z,20.80
2019-03-25T09:59:19.944Z,20.70
2019-03-25T10:02:17.258Z,20.50
2019-03-25T10:05:15.051Z,20.40
2019-03-25T10:08:13.541Z,20.60
2019-03-25T10:11:10.895Z,20.40
2019-03-25T10:14:07.768Z,20.10
2019-03-25T10:17:04.443Z,19.30
2019-03-25T10:20:02.597Z,19.20
2019-03-25T10:23:10.795Z,19.30
2019-03-25T10:26:44.452Z,19.60
2019-03-25T10:30:13.035Z,19.40
2019-03-25T10:33:24.110Z,19.00
2019-03-25T10:40:37.857Z,18.30
2019-03-25T10:48:30.654Z,19.10
2019-03-25T10:50:19.938Z,18.60
2019-03-25T10:53:19.134Z,18.60
2019-03-25T10:56:18.021Z,18.60
2019-03-25T10:59:14.518Z,18.20
2019-03-25T11:02:15.790Z,18.20
2019-03-25T11:05:13.508Z,18.80
2019-03-25T11:08:10.316Z,19.20
2019-03-25T11:11:16.466Z,19.00
2019-03-25T11:14:15.387Z,18.80
2019-03-25T11:17:23.079Z,18.70
2019-03-25T11:20:19.580Z,18.90
2019-03-25T11:23:16.135Z,19.30
2019-03-25T11:26:14.218Z,19.50
2019-03-25T11:29:11.541Z,19.40
2019-03-25T11:32:13.542Z,19.60
2019-03-25T11:35:12.063Z,20.20
2019-03-25T11:38:09.364Z,20.80
2019-03-25T11:41:07.029Z,20.90
2019-03-25T11:44:03.127Z,20.60
2019-03-25T11:47:01.434Z,20.80
2019-03-25T11:49:59.045Z,21.60
2019-03-25T11:52:56.550Z,21.30
2019-03-25T11:55:52.924Z,21.20
2019-03-25T11:58:49.397Z,21.70
2019-03-25T12:01:45.615Z,21.30
2019-03-25T12:04:42.998Z,21.40
2019-03-25T12:07:39.012Z,21.70
2019-03-25T12:10:34.624Z,22.20
2019-03-25T12:13:32.141Z,22.50
2019-03-25T12:16:31.386Z,22.50
2019-03-25T12:19:26.369Z,22.80
2019-03-25T12:22:30.518Z,23.20
2019-03-25T12:25:29.107Z,23.30
2019-03-25T12:28:25.798Z,23.50
2019-03-25T12:31:22.346Z,23.60
2019-03-25T12:34:22.512Z,23.80
2019-03-25T12:37:18.983Z,23.90
2019-03-25T12:40:15.329Z,24.00
2019-03-25T12:43:15.041Z,24.10
2019-03-25T12:46:17.267Z,24.40
2019-03-25T12:49:17.708Z,24.70
2019-03-25T12:52:14.952Z,25.00
2019-03-25T12:55:11.636Z,25.20
2019-03-25T12:58:09.157Z,25.50
2019-03-25T13:01:04.985Z,25.80
2019-03-25T13:04:01.641Z,25.90
2019-03-25T13:06:58.783Z,25.70
2019-03-25T13:09:55.893Z,25.80
2019-03-25T13:12:55.247Z,25.30
2019-03-25T13:15:55.860Z,26.10
2019-03-25T13:18:52.549Z,26.50
2019-03-25T13:21:49.759Z,26.60
2019-03-25T13:24:46.810Z,26.80
2019-03-25T13:27:43.302Z,26.90
2019-03-25T13:30:39.160Z,26.90
2019-03-25T13:33:35.175Z,26.70
2019-03-25T13:36:31.415Z,27.20
2019-03-25T13:39:28.067Z,27.00
2019-03-25T13:42:24.358Z,27.10
2019-03-25T13:45:20.901Z,27.30
2019-03-25T13:48:17.455Z,27.60
2019-03-25T13:51:13.772Z,27.70
2019-03-25T13:54:10.481Z,28.00
2019-03-25T13:57:07.111Z,28.10
2019-03-25T14:00:04.112Z,28.00
2019-03-25T14:03:00.604Z,28.00
2019-03-25T14:05:57.734Z,28.00
2019-03-25T14:08:55.802Z,28.00
2019-03-25T14:11:51.692Z,28.00
2019-03-25T14:14:48.379Z,28.00
2019-03-25T14:17:44.953Z,28.00
2019-03-25T14:20:41.543Z,28.10
2019-03-25T14:23:38.131Z,28.10
2019-03-25T14:26:34.646Z,28.60
2019-03-25T14:29:31.346Z,28.60
2019-03-25T14:32:27.859Z,28.70
2019-03-25T14:35:24.651Z,28.90
2019-03-25T14:38:21.381Z,29.00
2019-03-25T14:41:17.750Z,29.00
2019-03-25T14:44:13.857Z,29.10
2019-03-25T14:47:10.605Z,29.30
2019-03-25T14:50:07.247Z,29.50
2019-03-25T14:53:03.645Z,29.80
2019-03-25T14:56:00.104Z,29.90
2019-03-25T14:58:57.036Z,29.90
2019-03-25T15:01:55.334Z,29.80
2019-03-25T15:04:52.220Z,29.70
2019-03-25T15:07:49.726Z,29.90
2019-03-25T15:10:53.516Z,29.90
2019-03-25T15:13:43.932Z,30.00
2019-03-25T15:16:40.907Z,30.10
2019-03-25T15:19:37.848Z,30.00
2019-03-25T15:22:36.547Z,29.80
2019-03-25T15:25:34.660Z,29.60
2019-03-25T15:28:31.198Z,29.70
2019-03-25T15:31:27.599Z,29.60
2019-03-25T15:34:28.000Z,29.70
2019-03-25T15:37:24.574Z,29.80
2019-03-25T15:40:23.613Z,29.80
2019-03-25T15:43:20.492Z,29.80
2019-03-25T15:46:17.180Z,29.80
2019-03-25T15:49:14.350Z,29.80
2019-03-25T15:52:12.598Z,29.90
2019-03-25T15:55:10.912Z,29.80
2019-03-25T15:58:07.670Z,29.90
2019-03-25T16:01:04.367Z,29.90
2019-03-25T16:04:01.352Z,30.00
2019-03-25T16:06:58.790Z,30.20
2019-03-25T16:09:56.808Z,30.50
2019-03-25T16:12:53.846Z,30.60
2019-03-25T16:15:51.888Z,30.50
2019-03-25T16:18:48.540Z,30.60
2019-03-25T16:21:45.597Z,30.50
2019-03-25T16:24:41.661Z,30.40
2019-03-25T16:27:37.619Z,30.60
2019-03-25T16:30:58.636Z,30.90
2019-03-25T16:33:49.093Z,31.30
2019-03-25T16:36:45.538Z,31.60
2019-03-25T16:39:43.789Z,32.00
2019-03-25T16:42:40.331Z,32.30
2019-03-25T16:45:37.527Z,33.30
2019-03-25T16:48:34.896Z,32.80
2019-03-25T16:51:32.127Z,32.80
2019-03-25T16:54:29.308Z,32.70
2019-03-25T16:57:26.107Z,32.50
2019-03-25T17:00:27.501Z,32.20
2019-03-25T17:03:21.778Z,32.20
2019-03-25T17:06:18.257Z,32.20
2019-03-25T17:09:14.964Z,32.40
2019-03-25T17:12:11.102Z,32.70
2019-03-25T17:15:07.615Z,32.90
2019-03-25T17:18:04.542Z,33.20
2019-03-25T17:21:00.712Z,33.60
2019-03-25T17:23:57.312Z,33.60
2019-03-25T17:26:53.767Z,33.70
2019-03-25T17:29:51.249Z,33.90
2019-03-25T17:32:47.587Z,34.00
2019-03-25T17:35:44.213Z,34.10
2019-03-25T17:38:40.814Z,34.10
2019-03-25T17:41:37.002Z,34.00
2019-03-25T17:44:33.465Z,34.00
2019-03-25T17:47:30.019Z,34.00
2019-03-25T17:50:26.347Z,34.00
2019-03-25T17:53:23.218Z,34.10
2019-03-25T17:56:19.944Z,34.10
2019-03-25T17:59:16.592Z,34.00
2019-03-25T18:02:14.012Z,33.90
2019-03-25T18:05:12.965Z,33.60
2019-03-25T18:08:11.334Z,33.50
2019-03-25T18:11:08.516Z,33.50
2019-03-25T18:14:05.482Z,33.50
2019-03-25T18:17:01.545Z,33.70
2019-03-25T18:20:00.051Z,33.80
2019-03-25T18:22:55.812Z,33.70
2019-03-25T18:25:52.526Z,34.00
2019-03-25T18:28:48.957Z,34.10
2019-03-25T18:31:45.711Z,34.20
2019-03-25T18:34:42.365Z,34.30
2019-03-25T18:37:39.176Z,34.50
2019-03-25T18:40:35.645Z,34.70
2019-03-25T18:43:34.128Z,34.80
2019-03-25T18:46:33.326Z,35.10
2019-03-25T18:49:28.782Z,35.40
2019-03-25T18:52:25.115Z,35.40
2019-03-25T18:55:22.105Z,35.00
2019-03-25T18:58:18.899Z,34.30
2019-03-25T19:01:15.491Z,35.00
2019-03-25T19:04:12.292Z,34.90
2019-03-25T19:07:09.061Z,35.00
2019-03-25T19:10:06.128Z,35.20
2019-03-25T19:13:02.736Z,35.10
2019-03-25T19:15:59.185Z,35.30
2019-03-25T19:18:55.736Z,35.30
2019-03-25T19:21:51.981Z,35.30
2019-03-25T19:24:48.789Z,35.40
2019-03-25T19:27:46.698Z,35.50
2019-03-25T19:30:43.997Z,35.40
2019-03-25T19:33:40.608Z,35.10
2019-03-25T19:36:37.423Z,35.00
2019-03-25T19:39:33.721Z,34.90
2019-03-25T19:42:30.111Z,34.90
2019-03-25T19:45:27.112Z,34.80
2019-03-25T19:48:23.656Z,35.00
2019-03-25T19:51:20.637Z,35.50
2019-03-25T19:54:17.341Z,34.80
2019-03-25T19:57:13.819Z,34.90
2019-03-25T20:00:11.061Z,34.80
2019-03-25T20:03:07.772Z,34.80
2019-03-25T20:06:04.269Z,34.80
2019-03-25T20:09:01.368Z,34.80
2019-03-25T20:11:58.253Z,34.70
2019-03-25T20:14:55.006Z,34.60
2019-03-25T20:17:51.223Z,34.60
2019-03-25T20:20:47.712Z,34.60
2019-03-25T20:23:44.306Z,34.60
2019-03-25T20:26:40.767Z,34.50
2019-03-25T20:29:38.014Z,34.50
2019-03-25T20:32:34.456Z,33.80
2019-03-25T20:35:31.266Z,34.50
2019-03-25T20:38:28.200Z,34.40
2019-03-25T20:41:24.540Z,34.30
2019-03-25T20:44:21.013Z,34.30
2019-03-25T20:47:17.492Z,34.20
2019-03-25T20:50:14.242Z,34.20
2019-03-25T20:53:11.027Z,34.30
2019-03-25T20:56:07.837Z,34.30
2019-03-25T20:59:04.638Z,34.50
2019-03-25T21:02:01.441Z,34.50
2019-03-25T21:04:58.094Z,34.50
2019-03-25T21:07:55.002Z,34.50
2019-03-25T21:10:51.513Z,34.50
2019-03-25T21:13:48.365Z,34.40
2019-03-25T21:16:44.796Z,34.50
2019-03-25T21:19:41.414Z,34.80
2019-03-25T21:22:38.229Z,35.50
2019-03-25T21:25:34.694Z,35.00
2019-03-25T21:28:31.410Z,35.00
2019-03-25T21:31:28.158Z,35.20
2019-03-25T21:34:24.972Z,35.30
2019-03-25T21:37:21.871Z,35.30
2019-03-25T21:40:18.807Z,35.10
2019-03-25T21:43:15.359Z,35.10
2019-03-25T21:46:12.118Z,35.10
2019-03-25T21:49:09.067Z,35.30
2019-03-25T21:52:05.869Z,35.40
2019-03-25T21:55:02.750Z,35.60
2019-03-25T21:58:00.332Z,35.90
2019-03-25T22:00:56.969Z,36.10
2019-03-25T22:03:53.621Z,36.00
2019-03-25T22:06:50.333Z,36.00
2019-03-25T22:09:47.151Z,36.20
2019-03-25T22:12:43.817Z,36.40
2019-03-25T22:15:41.328Z,36.40
2019-03-25T22:18:37.537Z,36.40
2019-03-25T22:21:34.200Z,36.50
2019-03-25T22:24:30.962Z,36.70
2019-03-25T22:27:27.674Z,36.80
2019-03-25T22:30:25.913Z,36.80
2019-03-25T22:33:26.097Z,37.00
2019-03-25T22:36:19.257Z,37.20
2019-03-25T22:39:15.922Z,37.10
2019-03-25T22:42:12.487Z,37.30
2019-03-25T22:45:09.648Z,37.40
2019-03-25T22:48:07.538Z,37.60
2019-03-25T22:51:03.195Z,37.70
2019-03-25T22:53:59.662Z,37.80
2019-03-25T22:56:56.832Z,37.80
2019-03-25T22:59:53.689Z,37.80
2019-03-25T23:02:50.187Z,37.80
2019-03-25T23:05:47.034Z,37.60
2019-03-25T23:08:43.991Z,37.70
2019-03-25T23:11:40.992Z,37.70
2019-03-25T23:14:38.249Z,37.90
2019-03-25T23:17:35.753Z,37.80
2019-03-25T23:20:32.554Z,37.80
2019-03-25T23:23:29.103Z,37.90
2019-03-25T23:26:25.722Z,38.00
2019-03-25T23:29:22.381Z,38.10
2019-03-25T23:32:18.840Z,38.10
2019-03-25T23:35:15.341Z,38.30
2019-03-25T23:38:12.488Z,38.10
2019-03-25T23:41:09.214Z,38.00
2019-03-25T23:44:05.979Z,38.60
2019-03-25T23:47:03.193Z,38.10
2019-03-25T23:50:00.552Z,38.10
2019-03-25T23:52:57.495Z,38.20
2019-03-25T23:55:55.641Z,38.30
2019-03-25T23:58:52.918Z,38.00
